Time;durP1;ratioP1;P1;durP2;ratioP2;P2;SDS_P1;SDS_P2;PMS_P1;PMS_P2;Temp;Humidity;BMP_temperature;BMP_pressure;BME280_temperature;BME280_humidity;BME280_pressure;Samples;Min_cycle;Max_cycle;Signal;HPM_P1;HPM_P2
2022/09/16 00:01:11;;;;;;;5.97;3.10;;;12.80;99.90;;;;;;5106873;28;20239;-51
2022/09/16 00:03:40;;;;;;;6.10;3.30;;;12.70;99.90;;;;;;5085086;28;20251;-50
2022/09/16 00:06:16;;;;;;;7.50;3.57;;;12.70;99.90;;;;;;5109655;28;20622;-51
2022/09/16 00:08:44;;;;;;;6.30;3.43;;;12.70;99.90;;;;;;5105369;28;20234;-51
2022/09/16 00:11:13;;;;;;;9.00;4.03;;;12.70;99.90;;;;;;5107838;28;20767;-50
2022/09/16 00:13:41;;;;;;;6.60;4.40;;;12.70;99.90;;;;;;5096346;28;20239;-51
2022/09/16 00:16:10;;;;;;;8.30;4.63;;;12.70;99.90;;;;;;5100502;28;20200;-51
2022/09/16 00:18:38;;;;;;;8.97;4.77;;;12.80;99.90;;;;;;5108369;28;20211;-51
2022/09/16 00:21:08;;;;;;;9.00;4.80;;;12.80;99.90;;;;;;5109714;28;20638;-50
2022/09/16 00:23:38;;;;;;;8.60;5.80;;;12.80;99.90;;;;;;5094136;28;20305;-51
2022/09/16 00:26:06;;;;;;;9.47;5.70;;;12.80;99.90;;;;;;5098264;28;20239;-51
2022/09/16 00:28:34;;;;;;;7.67;5.07;;;12.70;99.90;;;;;;5109088;28;20318;-51
2022/09/16 00:31:03;;;;;;;10.87;5.80;;;12.70;99.90;;;;;;5109354;28;20699;-51
2022/09/16 00:33:32;;;;;;;10.73;6.27;;;12.60;99.90;;;;;;5101356;28;20215;-51
2022/09/16 00:36:08;;;;;;;8.97;6.40;;;12.60;99.90;;;;;;5109501;28;20291;-51
2022/09/16 00:38:38;;;;;;;9.53;6.50;;;12.60;99.90;;;;;;5109692;28;20251;-50
2022/09/16 00:41:07;;;;;;;12.80;6.70;;;12.50;99.90;;;;;;5109427;28;20235;-50
2022/09/16 00:43:53;;;;;;;8.97;7.00;;;12.50;99.90;;;;;;5109131;28;20246;-51
2022/09/16 00:46:29;;;;;;;16.13;7.13;;;12.50;99.90;;;;;;5109452;28;20227;-51
2022/09/16 00:48:58;;;;;;;10.17;7.23;;;12.40;99.90;;;;;;5109370;28;20930;-50
2022/09/16 00:51:26;;;;;;;11.83;7.37;;;12.40;99.90;;;;;;5112274;28;20299;-51
2022/09/16 00:54:03;;;;;;;9.37;7.03;;;12.50;99.90;;;;;;5112521;28;20239;-49
2022/09/16 00:56:35;;;;;;;11.20;7.77;;;12.50;99.90;;;;;;5112255;28;20684;-50
2022/09/16 00:59:09;;;;;;;8.63;6.80;;;12.50;99.90;;;;;;5113169;28;20215;-50
2022/09/16 01:01:38;;;;;;;9.80;7.57;;;12.40;99.90;;;;;;5113018;28;20290;-51
2022/09/16 01:04:12;;;;;;;10.63;7.03;;;12.40;99.90;;;;;;5112979;28;20260;-51
2022/09/16 01:06:40;;;;;;;13.67;8.00;;;12.40;99.90;;;;;;5113049;28;20238;-51
2022/09/16 01:09:10;;;;;;;9.37;7.73;;;12.50;99.90;;;;;;5112804;28;20231;-51
2022/09/16 01:11:38;;;;;;;9.50;7.17;;;12.50;99.90;;;;;;5109726;28;20205;-51
2022/09/16 01:17:00;;;;;;;9.10;7.20;;;12.50;99.90;;;;;;5110204;28;20203;-50
2022/09/16 01:19:44;;;;;;;10.07;7.03;;;12.50;99.90;;;;;;5112564;28;20311;-51
2022/09/16 01:22:26;;;;;;;10.67;7.57;;;12.60;99.90;;;;;;5112290;28;20299;-51
2022/09/16 01:25:06;;;;;;;12.13;7.40;;;12.60;99.90;;;;;;5112892;28;20210;-51
2022/09/16 01:27:58;;;;;;;10.90;7.03;;;12.60;99.90;;;;;;5112652;28;20229;-51
2022/09/16 01:30:51;;;;;;;10.57;7.77;;;12.60;99.90;;;;;;5112406;28;20235;-50
2022/09/16 01:33:31;;;;;;;12.53;8.17;;;12.60;99.90;;;;;;5106046;28;20232;-50
2022/09/16 01:36:21;;;;;;;11.87;7.73;;;12.50;99.90;;;;;;5105835;28;20668;-51
2022/09/16 01:39:01;;;;;;;12.23;7.57;;;12.50;99.90;;;;;;5112656;28;20327;-51
2022/09/16 01:41:42;;;;;;;9.53;7.80;;;12.50;99.90;;;;;;5112106;28;20202;-51
2022/09/16 01:44:19;;;;;;;9.27;7.70;;;12.40;99.90;;;;;;5111786;28;20780;-51
2022/09/16 01:46:55;;;;;;;12.60;7.70;;;12.40;99.90;;;;;;5112423;28;20203;-51
2022/09/16 01:49:33;;;;;;;9.20;7.07;;;12.30;99.90;;;;;;5112066;28;20284;-51
2022/09/16 01:52:13;;;;;;;10.50;7.93;;;12.30;99.90;;;;;;5110312;28;20294;-51
2022/09/16 01:54:45;;;;;;;12.23;7.93;;;12.30;99.90;;;;;;5111519;28;20227;-51
2022/09/16 01:57:18;;;;;;;8.53;7.53;;;12.20;99.90;;;;;;5099325;28;20207;-51
2022/09/16 01:59:52;;;;;;;9.83;8.17;;;12.20;99.90;;;;;;5108028;28;20227;-51
2022/09/16 02:02:26;;;;;;;11.23;8.10;;;12.10;99.90;;;;;;5111598;28;20203;-51
2022/09/16 02:04:57;;;;;;;10.63;7.20;;;12.10;99.90;;;;;;5111977;28;20195;-50
2022/09/16 02:07:29;;;;;;;10.70;7.33;;;12.00;99.90;;;;;;5111863;28;20235;-50
2022/09/16 02:10:05;;;;;;;10.03;7.10;;;12.00;99.90;;;;;;5112039;28;20626;-51
2022/09/16 02:12:37;;;;;;;9.80;6.83;;;12.00;99.90;;;;;;5111643;28;20261;-51
2022/09/16 02:15:08;;;;;;;8.67;7.03;;;12.00;99.90;;;;;;5111483;28;20211;-50
2022/09/16 02:17:43;;;;;;;10.63;7.07;;;12.00;99.90;;;;;;5111642;28;20255;-51
2022/09/16 02:20:14;;;;;;;10.30;7.57;;;11.90;99.90;;;;;;5111615;28;20281;-51
2022/09/16 02:22:46;;;;;;;9.87;6.40;;;11.90;99.90;;;;;;5111308;28;20299;-50
2022/09/16 02:25:16;;;;;;;10.87;7.03;;;11.90;99.90;;;;;;5111523;28;20204;-51
2022/09/16 02:27:48;;;;;;;8.50;7.33;;;11.90;99.90;;;;;;5111664;28;20330;-50
2022/09/16 02:30:19;;;;;;;8.73;7.33;;;11.80;99.90;;;;;;5112060;28;20254;-49
2022/09/16 02:32:50;;;;;;;9.30;7.70;;;11.80;99.90;;;;;;5110599;28;20204;-50
2022/09/16 02:35:21;;;;;;;11.87;6.83;;;11.80;99.90;;;;;;5107747;28;20204;-51
2022/09/16 02:37:53;;;;;;;9.83;6.60;;;11.70;99.90;;;;;;5112419;28;20310;-50
2022/09/16 02:40:27;;;;;;;7.90;6.60;;;11.70;99.90;;;;;;5111857;28;20196;-50
2022/09/16 02:42:57;;;;;;;12.97;7.20;;;11.70;99.90;;;;;;5111225;28;20203;-51
2022/09/16 02:45:37;;;;;;;9.60;6.40;;;11.60;99.90;;;;;;5111672;28;20218;-50
2022/09/16 02:48:14;;;;;;;11.00;6.97;;;11.60;99.90;;;;;;5111546;28;20234;-50
2022/09/16 02:50:47;;;;;;;13.53;7.37;;;11.60;99.90;;;;;;5111146;28;20215;-50
2022/09/16 02:53:27;;;;;;;8.90;6.47;;;11.50;99.90;;;;;;5110324;28;20212;-51
2022/09/16 02:56:00;;;;;;;8.47;7.20;;;11.50;99.90;;;;;;5111507;28;20231;-51
2022/09/16 02:58:29;;;;;;;10.07;7.57;;;11.40;99.90;;;;;;5101867;28;20247;-50
2022/09/16 03:00:58;;;;;;;11.80;7.30;;;11.40;99.90;;;;;;5111393;28;20235;-51
2022/09/16 03:03:28;;;;;;;10.20;8.03;;;11.40;99.90;;;;;;5110556;28;20321;-50
2022/09/16 03:06:13;;;;;;;13.07;8.17;;;11.40;99.90;;;;;;5111208;28;20235;-51
2022/09/16 03:08:43;;;;;;;8.63;7.60;;;11.40;99.90;;;;;;5096816;28;20326;-51
2022/09/16 03:11:25;;;;;;;12.17;7.87;;;11.30;99.90;;;;;;5110914;28;20208;-50
2022/09/16 03:14:15;;;;;;;7.87;6.83;;;11.30;99.90;;;;;;5084381;28;20210;-50
2022/09/16 03:16:52;;;;;;;11.20;8.10;;;11.20;99.90;;;;;;5110717;28;20427;-51
2022/09/16 03:19:31;;;;;;;12.53;8.57;;;11.20;99.90;;;;;;5110421;28;20310;-51
2022/09/16 03:22:06;;;;;;;10.63;7.87;;;11.30;99.90;;;;;;5110328;28;20262;-50
2022/09/16 03:24:45;;;;;;;10.60;8.27;;;11.30;99.90;;;;;;5110452;28;20659;-51
2022/09/16 03:27:19;;;;;;;12.77;8.40;;;11.20;99.90;;;;;;5110385;28;20286;-50
2022/09/16 03:29:55;;;;;;;10.13;8.97;;;11.20;99.90;;;;;;5110577;28;20303;-51
2022/09/16 03:32:25;;;;;;;11.40;7.93;;;11.20;99.90;;;;;;5108995;28;20281;-50
2022/09/16 03:34:59;;;;;;;10.03;8.73;;;11.20;99.90;;;;;;5103111;28;20702;-50
2022/09/16 03:37:30;;;;;;;9.47;8.47;;;11.20;99.90;;;;;;5110238;28;20235;-50
2022/09/16 03:40:02;;;;;;;9.47;8.17;;;11.20;99.90;;;;;;5110197;28;20227;-50
2022/09/16 03:42:31;;;;;;;11.60;7.67;;;11.20;99.90;;;;;;5109278;28;20207;-50
2022/09/16 03:44:59;;;;;;;8.87;7.93;;;11.20;99.90;;;;;;5109920;28;20210;-50
2022/09/16 03:47:27;;;;;;;10.60;9.07;;;11.20;99.90;;;;;;5110170;28;20200;-51
2022/09/16 03:49:57;;;;;;;12.17;9.23;;;11.20;99.90;;;;;;5110226;28;20304;-50
2022/09/16 03:52:25;;;;;;;10.03;8.10;;;11.20;99.90;;;;;;5109864;28;20239;-50
2022/09/16 03:54:53;;;;;;;11.43;9.10;;;11.10;99.90;;;;;;5109567;28;20207;-51
2022/09/16 03:57:21;;;;;;;9.10;7.53;;;11.00;99.90;;;;;;5109861;28;20294;-51
2022/09/16 03:59:49;;;;;;;9.67;7.90;;;11.10;99.90;;;;;;5109484;28;20298;-50
2022/09/16 04:02:17;;;;;;;9.93;8.93;;;11.10;99.90;;;;;;5108859;28;20314;-50
2022/09/16 04:04:46;;;;;;;9.40;8.37;;;11.00;99.90;;;;;;5109138;28;20567;-50
2022/09/16 04:07:15;;;;;;;11.50;8.60;;;11.00;99.90;;;;;;5109742;28;20451;-50
2022/09/16 04:09:43;;;;;;;10.17;8.10;;;11.00;99.90;;;;;;5109571;28;20224;-51
2022/09/16 04:12:12;;;;;;;9.60;8.53;;;11.00;99.90;;;;;;5109361;28;20211;-50
2022/09/16 04:14:40;;;;;;;9.10;7.93;;;11.00;99.90;;;;;;5109675;28;20302;-51
2022/09/16 04:17:08;;;;;;;10.10;9.10;;;11.00;99.90;;;;;;5109397;28;20231;-50
2022/09/16 04:19:36;;;;;;;10.83;8.67;;;10.90;99.90;;;;;;5109450;28;20259;-50
2022/09/16 04:22:04;;;;;;;12.27;8.40;;;10.90;99.90;;;;;;5109301;28;20287;-51
2022/09/16 04:24:34;;;;;;;10.27;9.10;;;10.90;99.90;;;;;;5109789;28;20238;-50
2022/09/16 04:27:02;;;;;;;9.93;8.13;;;10.90;99.90;;;;;;5113634;28;20203;-50
2022/09/16 04:29:31;;;;;;;10.87;8.53;;;10.90;99.90;;;;;;5113753;28;20234;-51
2022/09/16 04:31:59;;;;;;;10.70;8.83;;;10.80;99.90;;;;;;5113055;28;20246;-51
2022/09/16 04:34:27;;;;;;;8.80;7.80;;;10.80;99.90;;;;;;5106717;28;20200;-50
2022/09/16 04:36:55;;;;;;;9.00;8.20;;;10.80;99.90;;;;;;5113546;28;20235;-51
2022/09/16 04:39:23;;;;;;;8.40;7.50;;;10.70;99.90;;;;;;5113526;28;20227;-50
2022/09/16 04:41:53;;;;;;;12.27;8.80;;;10.70;99.90;;;;;;5113386;28;20638;-50
2022/09/16 04:44:21;;;;;;;9.83;8.47;;;10.70;99.90;;;;;;5113210;28;20203;-50
2022/09/16 04:46:49;;;;;;;12.03;8.13;;;10.70;99.90;;;;;;5113413;28;20246;-51
2022/09/16 04:49:17;;;;;;;10.40;8.13;;;10.70;99.90;;;;;;5113497;28;20262;-50
2022/09/16 04:51:45;;;;;;;10.10;7.60;;;10.70;99.90;;;;;;5112834;28;20219;-50
2022/09/16 04:54:13;;;;;;;9.23;7.37;;;10.60;99.90;;;;;;5113568;28;20206;-51
2022/09/16 04:56:41;;;;;;;8.43;7.60;;;10.60;99.90;;;;;;5113432;28;20202;-51
2022/09/16 04:59:11;;;;;;;9.87;8.00;;;10.60;99.90;;;;;;5113559;28;20288;-51
2022/09/16 05:01:39;;;;;;;8.87;7.40;;;10.60;99.90;;;;;;5113059;28;20249;-51
2022/09/16 05:04:09;;;;;;;12.23;7.90;;;10.50;99.90;;;;;;5112891;28;20207;-51
2022/09/16 05:06:39;;;;;;;10.30;7.40;;;10.50;99.90;;;;;;5113072;28;20235;-50
2022/09/16 05:09:08;;;;;;;9.27;7.47;;;10.40;99.90;;;;;;5113031;28;20703;-50
2022/09/16 05:11:38;;;;;;;11.37;7.83;;;10.40;99.90;;;;;;5108228;28;20338;-51
2022/09/16 05:14:09;;;;;;;12.97;7.47;;;10.30;99.90;;;;;;5112132;28;20219;-51
2022/09/16 05:16:39;;;;;;;12.90;7.90;;;10.30;99.90;;;;;;5112628;28;20203;-51
2022/09/16 05:19:07;;;;;;;9.13;7.60;;;10.30;99.90;;;;;;5112546;28;20270;-51
2022/09/16 05:21:37;;;;;;;9.47;7.60;;;10.30;99.90;;;;;;5112951;28;20289;-51
2022/09/16 05:24:07;;;;;;;8.00;7.20;;;10.30;99.90;;;;;;5112118;28;20254;-51
2022/09/16 05:26:37;;;;;;;9.60;7.47;;;10.30;99.90;;;;;;5113160;28;20207;-51
2022/09/16 05:29:07;;;;;;;8.37;7.63;;;10.30;99.90;;;;;;5112591;28;20247;-50
2022/09/16 05:31:37;;;;;;;9.70;8.53;;;10.40;99.90;;;;;;5112859;28;20305;-50
2022/09/16 05:34:10;;;;;;;10.17;7.93;;;10.40;99.90;;;;;;5104300;28;20298;-50
2022/09/16 05:36:40;;;;;;;10.17;7.60;;;10.40;99.90;;;;;;5111439;28;20203;-52
2022/09/16 05:39:10;;;;;;;10.53;7.93;;;10.50;99.90;;;;;;5112741;28;20314;-51
2022/09/16 05:41:53;;;;;;;9.30;7.67;;;10.60;99.90;;;;;;5112353;28;20610;-50
2022/09/16 05:44:21;;;;;;;9.93;7.90;;;10.70;99.90;;;;;;5112147;28;20294;-51
2022/09/16 05:46:49;;;;;;;7.90;7.10;;;10.80;99.90;;;;;;5112522;28;20288;-50
2022/09/16 05:49:19;;;;;;;9.40;7.93;;;10.90;99.90;;;;;;5112331;28;20263;-51
2022/09/16 05:51:49;;;;;;;11.33;8.97;;;11.00;99.90;;;;;;5112047;28;20226;-50
2022/09/16 05:54:18;;;;;;;17.53;12.50;;;11.10;99.90;;;;;;5112207;28;20211;-50
2022/09/16 05:56:47;;;;;;;19.10;14.07;;;11.10;99.90;;;;;;5112014;28;20248;-50
2022/09/16 05:59:16;;;;;;;21.33;14.03;;;11.20;99.90;;;;;;5112186;28;20223;-51
2022/09/16 06:01:45;;;;;;;15.57;11.93;;;11.30;99.90;;;;;;5111316;28;20579;-51
2022/09/16 06:04:15;;;;;;;16.73;11.40;;;11.30;99.90;;;;;;5111831;28;20204;-51
2022/09/16 06:06:46;;;;;;;17.83;12.40;;;11.30;99.90;;;;;;5104299;28;20204;-51
2022/09/16 06:09:16;;;;;;;15.10;10.70;;;11.20;99.90;;;;;;5072373;28;20225;-51
2022/09/16 06:11:45;;;;;;;15.03;10.37;;;11.20;99.90;;;;;;5082351;28;20224;-51
2022/09/16 06:14:15;;;;;;;10.47;8.10;;;11.10;99.90;;;;;;5090212;28;20243;-51
2022/09/16 06:16:43;;;;;;;11.13;7.77;;;11.20;99.90;;;;;;5088279;28;20200;-50
2022/09/16 06:19:13;;;;;;;23.93;16.13;;;11.20;99.90;;;;;;5088716;28;20227;-50
2022/09/16 06:21:44;;;;;;;17.23;11.47;;;11.30;99.90;;;;;;5088677;28;20196;-51
2022/09/16 06:24:12;;;;;;;13.20;9.23;;;11.40;99.90;;;;;;5088615;28;20287;-51
2022/09/16 06:26:43;;;;;;;8.40;7.40;;;11.40;99.90;;;;;;5088747;28;20608;-51
2022/09/16 06:29:12;;;;;;;13.17;8.67;;;11.60;99.90;;;;;;5085234;28;20248;-51
2022/09/16 06:31:41;;;;;;;11.77;8.93;;;11.60;99.90;;;;;;5089685;28;20670;-51
2022/09/16 06:34:14;;;;;;;10.37;7.90;;;11.70;99.90;;;;;;5090954;28;20713;-51
2022/09/16 06:36:44;;;;;;;18.30;12.80;;;11.80;99.90;;;;;;5110704;28;20665;-51
2022/09/16 06:39:13;;;;;;;15.30;11.70;;;11.80;99.90;;;;;;5108144;28;20258;-51
2022/09/16 06:41:41;;;;;;;14.77;10.87;;;11.90;99.90;;;;;;5077588;28;20192;-51
2022/09/16 06:44:10;;;;;;;13.80;8.40;;;12.50;99.90;;;;;;5089950;28;20208;-51
2022/09/16 06:46:38;;;;;;;13.37;8.80;;;12.80;99.90;;;;;;5079426;28;20226;-50
2022/09/16 06:49:06;;;;;;;10.33;7.70;;;12.60;99.90;;;;;;5081635;28;20229;-51
2022/09/16 06:51:35;;;;;;;12.80;8.90;;;12.80;99.90;;;;;;5069202;28;20802;-52
2022/09/16 06:54:07;;;;;;;10.30;8.57;;;13.20;99.90;;;;;;5070942;28;20703;-51
2022/09/16 06:56:37;;;;;;;14.30;10.33;;;13.50;99.90;;;;;;5075481;28;20246;-51
2022/09/16 06:59:06;;;;;;;10.47;8.60;;;13.60;99.90;;;;;;5081248;28;20258;-51
2022/09/16 07:01:35;;;;;;;10.13;8.50;;;13.60;99.90;;;;;;5089368;28;20279;-50
2022/09/16 07:04:05;;;;;;;14.47;10.10;;;13.60;99.90;;;;;;5070134;28;20205;-51
2022/09/16 07:06:34;;;;;;;10.67;7.57;;;13.40;99.90;;;;;;5086060;28;20319;-51
2022/09/16 07:09:24;;;;;;;8.80;7.10;;;13.40;99.90;;;;;;5080232;28;20235;-51
2022/09/16 07:11:52;;;;;;;11.97;9.30;;;13.30;99.90;;;;;;5088662;28;20226;-52
2022/09/16 07:14:20;;;;;;;12.00;7.80;;;13.30;99.90;;;;;;5088731;28;20308;-51
2022/09/16 07:16:48;;;;;;;11.10;8.07;;;13.50;99.90;;;;;;5089695;28;20236;-51
2022/09/16 07:19:16;;;;;;;9.53;6.27;;;13.60;99.90;;;;;;5086361;28;20683;-51
2022/09/16 07:21:44;;;;;;;8.87;6.80;;;13.50;99.90;;;;;;5088137;28;20227;-51
2022/09/16 07:24:14;;;;;;;9.10;5.77;;;13.60;99.90;;;;;;5088772;28;20578;-51
2022/09/16 07:26:44;;;;;;;5.80;4.63;;;13.50;99.90;;;;;;5090182;28;20597;-51
2022/09/16 07:29:14;;;;;;;7.10;4.47;;;13.50;99.90;;;;;;5087504;28;20657;-51
2022/09/16 07:31:43;;;;;;;6.40;4.40;;;13.50;99.90;;;;;;5088430;28;20274;-51
2022/09/16 07:34:12;;;;;;;7.20;4.60;;;13.50;99.90;;;;;;5087254;28;20235;-51
2022/09/16 07:36:42;;;;;;;4.80;3.70;;;13.70;99.90;;;;;;5105015;28;20757;-52
2022/09/16 07:39:12;;;;;;;4.93;3.50;;;13.80;99.90;;;;;;5089261;28;20717;-50
2022/09/16 07:41:43;;;;;;;6.83;3.80;;;13.80;99.90;;;;;;5071993;28;20236;-51
2022/09/16 07:44:13;;;;;;;4.43;3.90;;;13.90;99.90;;;;;;5071240;28;20232;-51
2022/09/16 07:46:41;;;;;;;9.00;3.60;;;13.90;99.90;;;;;;5072055;28;20298;-52
2022/09/16 07:49:13;;;;;;;5.33;3.67;;;13.80;99.90;;;;;;5070237;28;20216;-51
2022/09/16 07:51:42;;;;;;;4.00;3.60;;;13.70;99.90;;;;;;5075201;28;20765;-51
2022/09/16 07:54:12;;;;;;;4.23;3.80;;;13.60;99.90;;;;;;5076357;28;20232;-50
2022/09/16 07:56:43;;;;;;;4.33;3.50;;;13.50;99.90;;;;;;5075179;28;20295;-51
2022/09/16 07:59:14;;;;;;;5.00;3.10;;;13.40;99.90;;;;;;5087654;28;20251;-51
2022/09/16 08:01:46;;;;;;;3.20;2.90;;;13.40;99.90;;;;;;5087011;28;20192;-51
2022/09/16 08:04:15;;;;;;;4.57;3.30;;;13.40;99.90;;;;;;5078387;28;20208;-51
2022/09/16 08:06:43;;;;;;;4.90;3.27;;;13.40;99.90;;;;;;5073389;28;20283;-52
2022/09/16 08:09:11;;;;;;;3.47;3.13;;;13.50;99.90;;;;;;5068355;28;20252;-51
2022/09/16 08:12:03;;;;;;;5.97;4.27;;;13.60;99.90;;;;;;5070227;28;20220;-51
2022/09/16 08:14:32;;;;;;;4.60;3.90;;;13.80;99.90;;;;;;5070160;28;20903;-51
2022/09/16 08:17:00;;;;;;;4.83;4.27;;;14.10;99.90;;;;;;5079702;28;20211;-50
2022/09/16 08:19:29;;;;;;;6.07;5.00;;;14.60;99.90;;;;;;5071669;28;20224;-50
2022/09/16 08:21:57;;;;;;;5.13;4.10;;;14.90;99.90;;;;;;5068842;28;20289;-51
2022/09/16 08:24:26;;;;;;;5.50;4.03;;;15.20;99.90;;;;;;5075595;28;20208;-52
2022/09/16 08:26:54;;;;;;;6.50;4.80;;;15.30;99.90;;;;;;5069255;28;20236;-51
2022/09/16 08:29:24;;;;;;;6.57;4.63;;;15.50;99.90;;;;;;5070154;28;20982;-52
2022/09/16 08:31:53;;;;;;;4.83;4.20;;;15.50;99.90;;;;;;5074046;28;20308;-51
2022/09/16 08:34:21;;;;;;;10.63;4.40;;;15.30;99.90;;;;;;5091134;28;20196;-51
2022/09/16 08:36:49;;;;;;;6.50;4.27;;;15.10;99.90;;;;;;5090240;28;20603;-52
2022/09/16 08:39:17;;;;;;;6.73;4.63;;;14.90;99.90;;;;;;5078600;28;20235;-52
2022/09/16 08:42:00;;;;;;;9.43;4.65;;;14.60;99.90;;;;;;5087636;28;20204;-51
2022/09/16 08:44:38;;;;;;;10.43;4.87;;;14.50;99.90;;;;;;5085580;28;20243;-51
2022/09/16 08:47:18;;;;;;;9.83;4.90;;;14.40;99.90;;;;;;5067984;28;20216;-51
2022/09/16 08:49:49;;;;;;;8.73;4.80;;;14.20;99.90;;;;;;5086330;28;20228;-51
2022/09/16 08:52:27;;;;;;;6.97;4.80;;;14.20;99.90;;;;;;5078716;28;20318;-51
2022/09/16 08:54:58;;;;;;;8.10;4.97;;;14.10;99.90;;;;;;5086712;28;20661;-52
2022/09/16 08:57:28;;;;;;;8.17;5.77;;;14.10;99.90;;;;;;5081738;28;20300;-51
2022/09/16 09:00:01;;;;;;;7.47;5.67;;;14.10;99.90;;;;;;5071222;28;20228;-51
2022/09/16 09:02:40;;;;;;;7.83;6.00;;;14.10;99.90;;;;;;5067995;28;20197;-52
2022/09/16 09:05:17;;;;;;;6.33;5.00;;;14.10;99.90;;;;;;5069782;28;20215;-52
2022/09/16 09:08:06;;;;;;;6.27;4.87;;;14.10;99.90;;;;;;5081311;28;20311;-52
2022/09/16 09:10:46;;;;;;;6.10;5.40;;;14.30;99.90;;;;;;5088436;28;20208;-51
2022/09/16 09:13:37;;;;;;;7.20;4.60;;;14.50;99.90;;;;;;5090831;28;20223;-51
2022/09/16 09:16:16;;;;;;;6.30;4.80;;;14.70;99.90;;;;;;5080839;28;20282;-51
2022/09/16 09:18:54;;;;;;;4.40;4.00;;;14.60;99.90;;;;;;5090330;28;20255;-51
2022/09/16 09:21:29;;;;;;;4.40;3.57;;;14.60;99.90;;;;;;5091687;28;20246;-52
2022/09/16 09:24:36;;;;;;;3.50;3.20;;;14.60;99.90;;;;;;5090527;28;20204;-51
2022/09/16 09:27:14;;;;;;;3.57;2.97;;;14.70;99.90;;;;;;5080308;28;20290;-51
2022/09/16 09:29:53;;;;;;;5.13;2.50;;;14.70;99.90;;;;;;5075787;28;20224;-51
2022/09/16 09:32:30;;;;;;;4.33;2.50;;;14.70;99.90;;;;;;5076356;28;20227;-51
2022/09/16 09:35:25;;;;;;;5.97;2.40;;;14.70;99.90;;;;;;5096979;28;20210;-51
2022/09/16 09:38:19;;;;;;;3.73;2.33;;;14.60;99.90;;;;;;5111645;28;20269;-52
2022/09/16 09:40:52;;;;;;;2.13;1.93;;;14.70;99.90;;;;;;5090181;28;20287;-52
2022/09/16 09:43:25;;;;;;;2.57;2.00;;;14.80;99.90;;;;;;5091535;28;20287;-52
2022/09/16 09:45:59;;;;;;;5.30;2.50;;;14.90;99.90;;;;;;5087485;28;20208;-50
2022/09/16 09:48:35;;;;;;;2.87;2.20;;;14.80;99.90;;;;;;5111480;28;20257;-51
2022/09/16 09:51:13;;;;;;;2.90;2.20;;;15.00;99.90;;;;;;5110562;28;20199;-51
2022/09/16 09:53:45;;;;;;;4.77;2.40;;;15.10;99.90;;;;;;5110489;28;20306;-50
2022/09/16 09:56:19;;;;;;;2.50;2.30;;;15.20;99.90;;;;;;5100849;28;20315;-51
2022/09/16 09:58:58;;;;;;;3.92;2.70;;;15.40;99.90;;;;;;5071842;28;20314;-51
2022/09/16 10:01:26;;;;;;;4.70;2.70;;;15.40;99.90;;;;;;5071926;28;20205;-51
2022/09/16 10:03:56;;;;;;;3.87;2.90;;;15.20;99.90;;;;;;5072765;28;20217;-52
2022/09/16 10:06:28;;;;;;;2.95;2.67;;;15.20;99.90;;;;;;5088907;28;20204;-51
2022/09/16 10:08:58;;;;;;;3.47;2.70;;;15.10;99.90;;;;;;5089224;28;20220;-51
2022/09/16 10:11:27;;;;;;;3.53;2.80;;;15.00;99.90;;;;;;5088718;28;20214;-51
2022/09/16 10:13:57;;;;;;;5.30;2.80;;;14.90;99.90;;;;;;5089708;28;20812;-51
2022/09/16 10:16:28;;;;;;;5.53;2.50;;;14.70;99.90;;;;;;5090538;28;20704;-51
2022/09/16 10:19:02;;;;;;;4.73;2.60;;;14.60;99.90;;;;;;5090518;28;20236;-51
2022/09/16 10:21:40;;;;;;;4.33;3.30;;;14.50;99.90;;;;;;5090323;28;20218;-51
2022/09/16 10:24:28;;;;;;;3.30;2.40;;;14.50;99.90;;;;;;5076450;28;20744;-52
2022/09/16 10:26:57;;;;;;;4.00;2.60;;;14.40;99.90;;;;;;5104175;28;20215;-51
2022/09/16 10:29:26;;;;;;;5.40;2.70;;;14.40;99.90;;;;;;5110741;28;20318;-51
2022/09/16 10:31:54;;;;;;;5.97;3.07;;;14.50;99.90;;;;;;5109683;28;20203;-51
2022/09/16 10:34:32;;;;;;;3.77;2.40;;;14.50;99.90;;;;;;5106454;28;20231;-51
2022/09/16 10:37:04;;;;;;;2.73;2.40;;;14.50;99.90;;;;;;5110435;28;20243;-51
2022/09/16 10:39:33;;;;;;;2.37;1.97;;;14.50;99.90;;;;;;5084323;28;20285;-51
2022/09/16 10:42:02;;;;;;;4.80;2.20;;;14.40;99.90;;;;;;5089008;28;20212;-51
2022/09/16 10:44:33;;;;;;;3.40;2.07;;;14.20;99.90;;;;;;5079004;28;20197;-51
2022/09/16 10:47:05;;;;;;;3.03;2.10;;;14.10;99.90;;;;;;5078949;28;20243;-51
2022/09/16 10:49:39;;;;;;;2.10;1.90;;;14.00;99.90;;;;;;5089923;28;20224;-51
2022/09/16 10:52:14;;;;;;;2.60;2.40;;;14.10;99.90;;;;;;5073202;28;20292;-51
2022/09/16 10:54:42;;;;;;;2.97;1.80;;;14.10;99.90;;;;;;5085911;28;20312;-51
2022/09/16 10:57:27;;;;;;;2.30;2.10;;;14.30;99.90;;;;;;5077777;28;20288;-52
2022/09/16 11:00:01;;;;;;;4.83;2.03;;;14.40;99.90;;;;;;5084137;28;20256;-52
2022/09/16 11:02:55;;;;;;;3.80;2.17;;;14.50;99.90;;;;;;5079082;28;20236;-51
2022/09/16 11:05:31;;;;;;;3.40;1.90;;;14.60;99.90;;;;;;5082406;28;20239;-52
2022/09/16 11:08:08;;;;;;;3.63;1.90;;;14.60;99.90;;;;;;5083393;28;20223;-51
2022/09/16 11:10:44;;;;;;;2.57;1.63;;;14.80;99.90;;;;;;5082670;28;20231;-52
2022/09/16 11:13:24;;;;;;;2.37;1.67;;;14.90;99.90;;;;;;5088176;28;20262;-50
2022/09/16 11:16:06;;;;;;;3.60;1.90;;;14.90;99.90;;;;;;5075926;28;20212;-51
2022/09/16 11:18:47;;;;;;;2.70;1.40;;;14.80;99.90;;;;;;5086889;28;20705;-51
2022/09/16 11:21:54;;;;;;;2.10;1.50;;;14.70;99.90;;;;;;5084285;28;20208;-51
2022/09/16 11:24:49;;;;;;;3.03;1.73;;;14.70;99.90;;;;;;5088280;28;20286;-53
2022/09/16 11:27:27;;;;;;;2.50;1.43;;;14.90;99.90;;;;;;5071508;28;20204;-52
2022/09/16 11:30:08;;;;;;;3.10;1.77;;;14.90;99.90;;;;;;5081032;28;20315;-51
2022/09/16 11:33:18;;;;;;;2.40;1.73;;;15.10;99.90;;;;;;5086970;28;20283;-52
2022/09/16 11:36:14;;;;;;;3.33;1.80;;;15.20;99.90;;;;;;5096702;28;20272;-52
2022/09/16 11:38:56;;;;;;;5.27;1.67;;;15.40;99.90;;;;;;5109112;28;20314;-52
2022/09/16 11:41:33;;;;;;;3.13;1.60;;;15.50;99.90;;;;;;5099096;28;20210;-53
2022/09/16 11:44:16;;;;;;;2.70;1.73;;;15.60;99.90;;;;;;5108794;28;20207;-54
2022/09/16 11:46:53;;;;;;;3.67;1.92;;;15.60;99.90;;;;;;5083460;28;20692;-53
2022/09/16 11:49:43;;;;;;;3.50;1.70;;;15.70;99.90;;;;;;5109377;28;20231;-52
2022/09/16 11:52:29;;;;;;;3.90;2.08;;;15.90;99.90;;;;;;5108830;28;20246;-54
2022/09/16 11:55:19;;;;;;;2.45;1.70;;;16.20;99.90;;;;;;5109127;28;20323;-53
2022/09/16 11:57:53;;;;;;;4.32;1.95;;;16.40;99.90;;;;;;5108818;28;20255;-54
2022/09/16 12:00:21;;;;;;;3.42;1.80;;;16.30;99.90;;;;;;5109470;28;20317;-54
2022/09/16 12:02:55;;;;;;;3.63;1.90;;;16.20;99.90;;;;;;5108423;28;20641;-53
2022/09/16 12:05:28;;;;;;;3.33;2.10;;;16.00;99.90;;;;;;5103909;28;20727;-53
2022/09/16 12:08:04;;;;;;;3.22;1.95;;;15.80;99.90;;;;;;5102669;28;20227;-54
2022/09/16 12:10:42;;;;;;;3.03;1.95;;;15.70;99.90;;;;;;5108906;28;20289;-54
2022/09/16 12:13:14;;;;;;;2.97;2.30;;;15.40;99.90;;;;;;5108694;28;20631;-54
2022/09/16 12:15:48;;;;;;;3.03;2.25;;;15.20;99.90;;;;;;5102766;28;20419;-54
2022/09/16 12:18:20;;;;;;;3.27;2.53;;;15.10;99.90;;;;;;5098823;28;20254;-54
2022/09/16 12:20:53;;;;;;;3.80;2.50;;;15.00;99.90;;;;;;5108592;28;20213;-54
2022/09/16 12:23:24;;;;;;;3.47;2.50;;;14.90;99.90;;;;;;5108243;28;20242;-54
2022/09/16 12:26:04;;;;;;;3.60;2.83;;;14.80;99.90;;;;;;5109140;28;20282;-53
2022/09/16 12:28:37;;;;;;;4.13;2.30;;;14.80;99.90;;;;;;5109046;28;20299;-54
2022/09/16 12:31:12;;;;;;;5.20;2.40;;;14.90;99.90;;;;;;5108779;28;20275;-54
2022/09/16 12:33:48;;;;;;;3.87;2.40;;;15.00;99.90;;;;;;5098371;28;20204;-53
2022/09/16 12:36:22;;;;;;;2.97;2.30;;;15.10;99.90;;;;;;5107089;28;20223;-53
2022/09/16 12:38:51;;;;;;;2.35;2.15;;;15.20;99.90;;;;;;5103443;28;20314;-52
2022/09/16 12:41:49;;;;;;;4.47;2.10;;;15.30;99.90;;;;;;5101975;28;20725;-53
2022/09/16 12:44:43;;;;;;;2.58;1.98;;;15.30;99.90;;;;;;5108812;28;20243;-54
2022/09/16 12:47:28;;;;;;;2.03;1.80;;;15.30;99.90;;;;;;5112093;28;20202;-54
2022/09/16 12:50:27;;;;;;;3.33;1.90;;;15.40;99.90;;;;;;5112537;28;20207;-54
2022/09/16 12:53:45;;;;;;;2.13;1.67;;;15.50;99.90;;;;;;5111494;28;20989;-54
2022/09/16 12:56:26;;;;;;;2.20;1.92;;;15.60;99.90;;;;;;5112133;28;20596;-54
2022/09/16 12:59:29;;;;;;;4.60;2.33;;;15.90;99.90;;;;;;5095401;28;20255;-54
2022/09/16 13:02:03;;;;;;;3.78;2.28;;;16.00;99.90;;;;;;5086413;28;20245;-54
2022/09/16 13:04:34;;;;;;;2.08;1.88;;;16.10;99.90;;;;;;5106907;28;20283;-54
2022/09/16 13:07:02;;;;;;;2.92;1.73;;;16.20;99.90;;;;;;5100636;28;20290;-52
2022/09/16 13:09:35;;;;;;;2.88;1.08;;;16.20;99.90;;;;;;5098487;28;20234;-51
2022/09/16 13:12:06;;;;;;;1.42;0.90;;;16.10;99.90;;;;;;5100003;28;20291;-51
2022/09/16 13:14:57;;;;;;;1.52;1.05;;;16.00;99.90;;;;;;5111730;28;20609;-51
2022/09/16 13:17:31;;;;;;;2.05;0.90;;;15.80;99.90;;;;;;5109770;28;20291;-53
2022/09/16 13:20:06;;;;;;;2.72;1.10;;;15.70;99.90;;;;;;5108030;28;20200;-53